sensor_id;sensor_type;location;lat;lon;timestamp;pressure;altitude;pressure_sealevel;temperature;humidity
73063;BME280;61230;46.328;19.972;2023-04-02T00:04:22;99659.38;;;6.73;100.00
73063;BME280;61230;46.328;19.972;2023-04-02T00:07:27;99612.69;;;6.40;100.00
73063;BME280;61230;46.328;19.972;2023-04-02T00:10:34;99659.22;;;6.65;100.00
73063;BME280;61230;46.328;19.972;2023-04-02T00:13:23;99661.28;;;6.61;100.00
73063;BME280;61230;46.328;19.972;2023-04-02T00:16:18;99664.19;;;6.58;100.00
73063;BME280;61230;46.328;19.972;2023-04-02T00:19:12;99662.78;;;6.54;100.00
73063;BME280;61230;46.328;19.972;2023-04-02T00:22:00;99666.91;;;6.57;100.00
73063;BME280;61230;46.328;19.972;2023-04-02T00:24:51;99677.91;;;6.51;100.00
73063;BME280;61230;46.328;19.972;2023-04-02T00:27:37;99670.22;;;6.49;100.00
73063;BME280;61230;46.328;19.972;2023-04-02T00:30:24;99680.50;;;6.51;100.00
73063;BME280;61230;46.328;19.972;2023-04-02T00:33:14;99674.91;;;6.55;100.00
73063;BME280;61230;46.328;19.972;2023-04-02T00:36:05;99636.19;;;6.30;100.00
73063;BME280;61230;46.328;19.972;2023-04-02T00:38:54;99613.31;;;6.22;100.00
73063;BME280;61230;46.328;19.972;2023-04-02T00:41:41;99673.81;;;6.58;100.00
73063;BME280;61230;46.328;19.972;2023-04-02T00:44:41;99684.94;;;6.60;100.00
73063;BME280;61230;46.328;19.972;2023-04-02T00:47:36;99681.66;;;6.67;100.00
73063;BME280;61230;46.328;19.972;2023-04-02T00:50:39;99676.31;;;6.69;100.00
73063;BME280;61230;46.328;19.972;2023-04-02T00:53:27;99677.94;;;6.70;100.00
73063;BME280;61230;46.328;19.972;2023-04-02T00:56:18;99627.56;;;6.49;100.00
73063;BME280;61230;46.328;19.972;2023-04-02T00:59:26;99674.53;;;6.79;100.00
73063;BME280;61230;46.328;19.972;2023-04-02T01:05:20;99622.63;;;6.55;100.00
73063;BME280;61230;46.328;19.972;2023-04-02T01:08:14;99683.50;;;6.86;100.00
73063;BME280;61230;46.328;19.972;2023-04-02T01:17:00;99671.69;;;7.20;100.00
73063;BME280;61230;46.328;19.972;2023-04-02T01:23:14;99679.94;;;7.44;99.12
73063;BME280;61230;46.328;19.972;2023-04-02T01:29:34;99682.56;;;7.44;99.20
73063;BME280;61230;46.328;19.972;2023-04-02T01:32:21;99666.84;;;7.44;98.97
73063;BME280;61230;46.328;19.972;2023-04-02T01:35:08;99660.09;;;7.51;98.12
73063;BME280;61230;46.328;19.972;2023-04-02T01:38:10;99657.34;;;7.53;97.70
73063;BME280;61230;46.328;19.972;2023-04-02T01:41:10;99667.09;;;7.61;97.45
73063;BME280;61230;46.328;19.972;2023-04-02T01:44:15;99661.03;;;7.70;97.03
73063;BME280;61230;46.328;19.972;2023-04-02T01:47:09;99670.53;;;7.71;97.06
73063;BME280;61230;46.328;19.972;2023-04-02T01:50:00;99666.81;;;7.73;97.03
73063;BME280;61230;46.328;19.972;2023-04-02T01:52:54;99656.22;;;7.75;96.45
73063;BME280;61230;46.328;19.972;2023-04-02T01:58:30;99674.38;;;7.86;96.34
73063;BME280;61230;46.328;19.972;2023-04-02T02:01:20;99671.75;;;7.86;96.09
73063;BME280;61230;46.328;19.972;2023-04-02T02:04:11;99663.63;;;7.89;95.87
73063;BME280;61230;46.328;19.972;2023-04-02T02:06:58;99673.37;;;7.96;95.49
73063;BME280;61230;46.328;19.972;2023-04-02T02:09:46;99674.88;;;7.99;95.23
73063;BME280;61230;46.328;19.972;2023-04-02T02:12:31;99678.75;;;7.95;95.76
73063;BME280;61230;46.328;19.972;2023-04-02T02:15:22;99663.44;;;8.00;95.34
73063;BME280;61230;46.328;19.972;2023-04-02T02:18:10;99668.56;;;7.92;96.03
73063;BME280;61230;46.328;19.972;2023-04-02T02:20:57;99683.19;;;7.94;95.71
73063;BME280;61230;46.328;19.972;2023-04-02T02:23:44;99674.63;;;7.92;95.90
73063;BME280;61230;46.328;19.972;2023-04-02T02:26:30;99671.31;;;7.90;95.95
73063;BME280;61230;46.328;19.972;2023-04-02T02:29:21;99621.50;;;7.63;96.06
73063;BME280;61230;46.328;19.972;2023-04-02T02:32:09;99667.03;;;7.99;95.65
73063;BME280;61230;46.328;19.972;2023-04-02T02:35:02;99664.13;;;8.02;95.73
73063;BME280;61230;46.328;19.972;2023-04-02T02:37:55;99673.47;;;8.14;94.86
73063;BME280;61230;46.328;19.972;2023-04-02T02:40:44;99667.25;;;8.15;95.26
73063;BME280;61230;46.328;19.972;2023-04-02T02:43:32;99668.34;;;8.22;94.67
73063;BME280;61230;46.328;19.972;2023-04-02T02:46:21;99670.78;;;8.24;94.99
73063;BME280;61230;46.328;19.972;2023-04-02T02:49:14;99667.22;;;8.25;95.44
73063;BME280;61230;46.328;19.972;2023-04-02T02:52:20;99670.12;;;8.22;95.80
73063;BME280;61230;46.328;19.972;2023-04-02T02:55:16;99665.25;;;8.27;95.54
73063;BME280;61230;46.328;19.972;2023-04-02T02:58:12;99668.31;;;8.32;95.62
73063;BME280;61230;46.328;19.972;2023-04-02T03:00:59;99679.78;;;8.31;95.46
73063;BME280;61230;46.328;19.972;2023-04-02T03:03:46;99680.59;;;8.31;95.63
73063;BME280;61230;46.328;19.972;2023-04-02T03:06:32;99676.16;;;8.32;95.51
73063;BME280;61230;46.328;19.972;2023-04-02T03:09:31;99679.50;;;8.34;95.35
73063;BME280;61230;46.328;19.972;2023-04-02T03:18:48;99673.13;;;8.36;94.81
73063;BME280;61230;46.328;19.972;2023-04-02T03:21:53;99678.91;;;8.40;94.50
73063;BME280;61230;46.328;19.972;2023-04-02T03:24:50;99675.31;;;8.41;94.54
73063;BME280;61230;46.328;19.972;2023-04-02T03:27:41;99678.91;;;8.40;94.96
73063;BME280;61230;46.328;19.972;2023-04-02T03:30:52;99685.94;;;8.39;95.04
73063;BME280;61230;46.328;19.972;2023-04-02T03:33:44;99645.88;;;8.20;94.58
73063;BME280;61230;46.328;19.972;2023-04-02T03:36:42;99699.53;;;8.52;94.42
73063;BME280;61230;46.328;19.972;2023-04-02T03:39:42;99705.75;;;8.51;94.68
73063;BME280;61230;46.328;19.972;2023-04-02T03:42:38;99688.50;;;8.49;94.04
73063;BME280;61230;46.328;19.972;2023-04-02T03:45:32;99699.91;;;8.57;94.05
73063;BME280;61230;46.328;19.972;2023-04-02T03:48:27;99696.19;;;8.60;94.04
73063;BME280;61230;46.328;19.972;2023-04-02T03:51:25;99691.47;;;8.63;93.75
73063;BME280;61230;46.328;19.972;2023-04-02T03:54:14;99692.00;;;8.67;93.47
73063;BME280;61230;46.328;19.972;2023-04-02T03:57:01;99650.75;;;8.42;93.52
73063;BME280;61230;46.328;19.972;2023-04-02T04:00:19;99696.81;;;8.72;93.40
73063;BME280;61230;46.328;19.972;2023-04-02T04:06:10;99704.37;;;8.75;93.44
73063;BME280;61230;46.328;19.972;2023-04-02T04:09:07;99714.59;;;8.78;93.31
73063;BME280;61230;46.328;19.972;2023-04-02T04:12:04;99714.59;;;8.78;93.37
73063;BME280;61230;46.328;19.972;2023-04-02T04:18:09;99702.06;;;8.72;93.58
73063;BME280;61230;46.328;19.972;2023-04-02T04:21:20;99726.44;;;8.82;93.89
73063;BME280;61230;46.328;19.972;2023-04-02T04:24:23;99729.06;;;8.82;93.87
73063;BME280;61230;46.328;19.972;2023-04-02T04:30:29;99736.66;;;8.85;93.94
73063;BME280;61230;46.328;19.972;2023-04-02T04:33:24;99737.62;;;8.84;93.85
73063;BME280;61230;46.328;19.972;2023-04-02T04:36:24;99746.56;;;8.91;93.70
73063;BME280;61230;46.328;19.972;2023-04-02T04:39:20;99749.31;;;8.89;93.45
73063;BME280;61230;46.328;19.972;2023-04-02T04:42:33;99770.84;;;8.93;93.19
73063;BME280;61230;46.328;19.972;2023-04-02T04:48:28;99753.72;;;8.89;93.50
73063;BME280;61230;46.328;19.972;2023-04-02T04:51:24;99755.66;;;8.96;93.31
73063;BME280;61230;46.328;19.972;2023-04-02T04:54:12;99766.34;;;9.03;92.83
73063;BME280;61230;46.328;19.972;2023-04-02T04:57:02;99721.19;;;8.82;92.73
73063;BME280;61230;46.328;19.972;2023-04-02T04:59:57;99756.78;;;9.11;92.66
73063;BME280;61230;46.328;19.972;2023-04-02T05:02:50;99761.09;;;9.03;93.48
73063;BME280;61230;46.328;19.972;2023-04-02T05:05:38;99764.66;;;9.11;92.71
73063;BME280;61230;46.328;19.972;2023-04-02T05:08:32;99754.84;;;9.13;92.54
73063;BME280;61230;46.328;19.972;2023-04-02T05:11:29;99715.88;;;8.91;92.08
73063;BME280;61230;46.328;19.972;2023-04-02T05:14:18;99761.31;;;9.19;92.47
73063;BME280;61230;46.328;19.972;2023-04-02T05:17:19;99762.94;;;9.20;92.38
73063;BME280;61230;46.328;19.972;2023-04-02T05:20:32;99767.53;;;9.18;92.65
73063;BME280;61230;46.328;19.972;2023-04-02T05:23:24;99765.44;;;9.21;92.35
73063;BME280;61230;46.328;19.972;2023-04-02T05:26:15;99724.66;;;9.00;92.37
73063;BME280;61230;46.328;19.972;2023-04-02T05:29:36;99764.84;;;9.28;92.60
73063;BME280;61230;46.328;19.972;2023-04-02T05:32:30;99770.59;;;9.31;93.08
73063;BME280;61230;46.328;19.972;2023-04-02T05:35:19;99761.94;;;9.31;92.55
73063;BME280;61230;46.328;19.972;2023-04-02T05:38:06;99769.94;;;9.47;91.55
73063;BME280;61230;46.328;19.972;2023-04-02T05:44:25;99773.84;;;9.60;91.90
73063;BME280;61230;46.328;19.972;2023-04-02T05:47:17;99775.50;;;9.61;91.78
73063;BME280;61230;46.328;19.972;2023-04-02T05:53:07;99782.09;;;9.83;90.59
73063;BME280;61230;46.328;19.972;2023-04-02T05:55:58;99785.69;;;10.00;89.76
73063;BME280;61230;46.328;19.972;2023-04-02T05:58:49;99737.91;;;9.78;89.85
73063;BME280;61230;46.328;19.972;2023-04-02T06:01:47;99771.34;;;9.94;89.93
73063;BME280;61230;46.328;19.972;2023-04-02T06:04:45;99762.91;;;10.08;89.11
73063;BME280;61230;46.328;19.972;2023-04-02T06:08:23;99777.03;;;10.25;88.86
73063;BME280;61230;46.328;19.972;2023-04-02T06:11:17;99788.59;;;10.32;88.11
73063;BME280;61230;46.328;19.972;2023-04-02T06:14:04;99780.22;;;10.36;87.40
73063;BME280;61230;46.328;19.972;2023-04-02T06:16:49;99792.97;;;10.49;87.53
73063;BME280;61230;46.328;19.972;2023-04-02T06:19:36;99790.78;;;10.45;86.77
73063;BME280;61230;46.328;19.972;2023-04-02T06:25:32;99797.66;;;10.63;86.50
73063;BME280;61230;46.328;19.972;2023-04-02T06:28:24;99791.31;;;10.82;85.65
73063;BME280;61230;46.328;19.972;2023-04-02T06:31:24;99797.03;;;10.69;85.78
73063;BME280;61230;46.328;19.972;2023-04-02T06:34:16;99805.59;;;10.71;85.14
73063;BME280;61230;46.328;19.972;2023-04-02T06:37:11;99798.38;;;10.81;84.46
73063;BME280;61230;46.328;19.972;2023-04-02T06:40:00;99800.91;;;10.91;85.08
73063;BME280;61230;46.328;19.972;2023-04-02T06:42:47;99811.34;;;11.01;83.48
73063;BME280;61230;46.328;19.972;2023-04-02T06:45:39;99811.66;;;10.98;83.35
73063;BME280;61230;46.328;19.972;2023-04-02T06:48:26;99820.19;;;11.00;83.72
73063;BME280;61230;46.328;19.972;2023-04-02T06:51:16;99820.13;;;10.83;83.49
73063;BME280;61230;46.328;19.972;2023-04-02T06:54:03;99820.44;;;11.14;83.45
73063;BME280;61230;46.328;19.972;2023-04-02T06:56:50;99785.31;;;10.98;81.29
73063;BME280;61230;46.328;19.972;2023-04-02T06:59:36;99828.75;;;11.43;81.72
73063;BME280;61230;46.328;19.972;2023-04-02T07:02:27;99825.56;;;11.24;81.36
73063;BME280;61230;46.328;19.972;2023-04-02T07:05:14;99830.72;;;11.49;82.00
73063;BME280;61230;46.328;19.972;2023-04-02T07:08:00;99820.09;;;11.75;80.83
73063;BME280;61230;46.328;19.972;2023-04-02T07:10:45;99795.03;;;11.63;80.01
73063;BME280;61230;46.328;19.972;2023-04-02T07:13:31;99784.38;;;11.73;80.36
73063;BME280;61230;46.328;19.972;2023-04-02T07:16:22;99835.13;;;11.91;79.26
73063;BME280;61230;46.328;19.972;2023-04-02T07:19:17;99843.72;;;12.17;78.44
73063;BME280;61230;46.328;19.972;2023-04-02T07:22:02;99836.94;;;12.06;78.83
73063;BME280;61230;46.328;19.972;2023-04-02T07:24:48;99844.66;;;11.76;79.11
73063;BME280;61230;46.328;19.972;2023-04-02T07:27:33;99862.09;;;11.69;80.37
73063;BME280;61230;46.328;19.972;2023-04-02T07:30:18;99852.44;;;12.01;79.93
73063;BME280;61230;46.328;19.972;2023-04-02T07:33:03;99808.25;;;11.95;78.99
73063;BME280;61230;46.328;19.972;2023-04-02T07:35:50;99863.34;;;12.23;79.13
73063;BME280;61230;46.328;19.972;2023-04-02T07:38:35;99853.75;;;12.38;77.83
73063;BME280;61230;46.328;19.972;2023-04-02T07:41:21;99850.91;;;12.63;77.27
73063;BME280;61230;46.328;19.972;2023-04-02T07:44:09;99854.16;;;12.90;75.99
73063;BME280;61230;46.328;19.972;2023-04-02T07:46:55;99854.47;;;13.11;75.50
73063;BME280;61230;46.328;19.972;2023-04-02T07:49:40;99860.41;;;13.52;75.43
73063;BME280;61230;46.328;19.972;2023-04-02T07:52:25;99861.41;;;13.51;74.56
73063;BME280;61230;46.328;19.972;2023-04-02T07:55:13;99865.19;;;13.48;72.20
73063;BME280;61230;46.328;19.972;2023-04-02T07:57:58;99865.09;;;13.72;72.94
73063;BME280;61230;46.328;19.972;2023-04-02T08:00:44;99872.94;;;13.58;72.63
73063;BME280;61230;46.328;19.972;2023-04-02T08:03:29;99877.50;;;13.33;72.59
73063;BME280;61230;46.328;19.972;2023-04-02T08:06:14;99874.56;;;13.20;72.69
73063;BME280;61230;46.328;19.972;2023-04-02T08:09:00;99869.69;;;13.40;72.70
73063;BME280;61230;46.328;19.972;2023-04-02T08:11:45;99875.84;;;13.94;72.61
73063;BME280;61230;46.328;19.972;2023-04-02T08:14:31;99869.22;;;13.98;71.77
73063;BME280;61230;46.328;19.972;2023-04-02T08:17:16;99832.75;;;13.85;71.00
73063;BME280;61230;46.328;19.972;2023-04-02T08:20:01;99866.56;;;14.20;71.61
73063;BME280;61230;46.328;19.972;2023-04-02T08:22:48;99872.28;;;14.09;70.99
73063;BME280;61230;46.328;19.972;2023-04-02T08:25:34;99874.91;;;13.87;71.65
73063;BME280;61230;46.328;19.972;2023-04-02T08:28:20;99834.13;;;14.04;70.27
73063;BME280;61230;46.328;19.972;2023-04-02T08:31:06;99871.22;;;14.18;68.65
73063;BME280;61230;46.328;19.972;2023-04-02T08:33:52;99874.09;;;14.31;67.63
73063;BME280;61230;46.328;19.972;2023-04-02T08:36:42;99872.75;;;14.13;68.48
73063;BME280;61230;46.328;19.972;2023-04-02T08:39:28;99874.41;;;14.36;66.86
73063;BME280;61230;46.328;19.972;2023-04-02T08:42:33;99877.47;;;14.63;65.68
73063;BME280;61230;46.328;19.972;2023-04-02T08:48:25;99848.22;;;14.19;65.84
73063;BME280;61230;46.328;19.972;2023-04-02T08:51:22;99879.22;;;14.70;66.10
73063;BME280;61230;46.328;19.972;2023-04-02T08:54:23;99885.47;;;14.92;63.71
73063;BME280;61230;46.328;19.972;2023-04-02T09:00:38;99890.94;;;14.90;64.51
73063;BME280;61230;46.328;19.972;2023-04-02T09:03:29;99889.97;;;15.21;64.06
73063;BME280;61230;46.328;19.972;2023-04-02T09:06:18;99890.59;;;15.37;64.04
73063;BME280;61230;46.328;19.972;2023-04-02T09:09:03;99896.00;;;15.29;62.35
73063;BME280;61230;46.328;19.972;2023-04-02T09:11:59;99897.47;;;15.32;62.76
73063;BME280;61230;46.328;19.972;2023-04-02T09:15:21;99898.44;;;15.45;61.45
73063;BME280;61230;46.328;19.972;2023-04-02T09:18:15;99910.88;;;15.45;59.87
73063;BME280;61230;46.328;19.972;2023-04-02T09:21:16;99907.72;;;15.49;61.05
73063;BME280;61230;46.328;19.972;2023-04-02T09:24:04;99912.63;;;15.52;60.42
73063;BME280;61230;46.328;19.972;2023-04-02T09:26:49;99919.38;;;15.70;59.99
73063;BME280;61230;46.328;19.972;2023-04-02T09:35:29;99910.22;;;16.08;61.55
73063;BME280;61230;46.328;19.972;2023-04-02T09:41:18;99907.88;;;15.63;61.31
73063;BME280;61230;46.328;19.972;2023-04-02T09:47:05;99910.97;;;16.02;61.24
73063;BME280;61230;46.328;19.972;2023-04-02T09:50:33;99902.06;;;16.52;59.57
73063;BME280;61230;46.328;19.972;2023-04-02T09:53:30;99899.75;;;16.91;59.64
73063;BME280;61230;46.328;19.972;2023-04-02T09:56:18;99905.16;;;16.77;58.45
73063;BME280;61230;46.328;19.972;2023-04-02T09:59:13;99911.59;;;16.46;58.34
73063;BME280;61230;46.328;19.972;2023-04-02T10:02:00;99902.87;;;16.52;57.85
73063;BME280;61230;46.328;19.972;2023-04-02T10:04:48;99906.22;;;16.82;58.83
73063;BME280;61230;46.328;19.972;2023-04-02T10:07:39;99898.88;;;16.56;59.40
73063;BME280;61230;46.328;19.972;2023-04-02T10:10:29;99913.31;;;16.33;57.98
73063;BME280;61230;46.328;19.972;2023-04-02T10:14:30;99914.91;;;16.06;59.12
73063;BME280;61230;46.328;19.972;2023-04-02T10:16:50;99870.84;;;15.25;60.24
73063;BME280;61230;46.328;19.972;2023-04-02T10:19:41;99877.34;;;16.30;58.71
73063;BME280;61230;46.328;19.972;2023-04-02T10:22:28;99909.16;;;16.45;58.08
73063;BME280;61230;46.328;19.972;2023-04-02T10:25:14;99906.97;;;17.04;56.38
73063;BME280;61230;46.328;19.972;2023-04-02T10:28:15;99912.13;;;16.14;59.43
73063;BME280;61230;46.328;19.972;2023-04-02T10:31:10;99903.53;;;16.33;57.44
73063;BME280;61230;46.328;19.972;2023-04-02T10:34:11;99914.09;;;16.05;58.65
73063;BME280;61230;46.328;19.972;2023-04-02T10:37:19;99908.47;;;16.36;57.60
73063;BME280;61230;46.328;19.972;2023-04-02T10:53:14;99915.81;;;15.98;59.50
73063;BME280;61230;46.328;19.972;2023-04-02T10:56:02;99898.00;;;16.35;57.90
73063;BME280;61230;46.328;19.972;2023-04-02T10:59:04;99868.38;;;15.89;57.84
73063;BME280;61230;46.328;19.972;2023-04-02T11:01:55;99871.47;;;16.35;58.96
73063;BME280;61230;46.328;19.972;2023-04-02T11:04:44;99897.50;;;16.67;57.67
73063;BME280;61230;46.328;19.972;2023-04-02T11:07:37;99892.50;;;16.79;58.62
73063;BME280;61230;46.328;19.972;2023-04-02T11:10:25;99898.66;;;17.13;59.29
73063;BME280;61230;46.328;19.972;2023-04-02T11:13:23;99907.06;;;16.83;59.08
73063;BME280;61230;46.328;19.972;2023-04-02T11:16:11;99903.16;;;16.36;60.88
73063;BME280;61230;46.328;19.972;2023-04-02T11:22:22;99859.22;;;16.34;59.05
73063;BME280;61230;46.328;19.972;2023-04-02T11:25:20;99883.03;;;16.70;58.74
73063;BME280;61230;46.328;19.972;2023-04-02T11:31:19;99891.28;;;17.50;55.98
73063;BME280;61230;46.328;19.972;2023-04-02T11:34:04;99891.91;;;17.11;56.00
73063;BME280;61230;46.328;19.972;2023-04-02T11:42:37;99884.03;;;17.31;56.00
73063;BME280;61230;46.328;19.972;2023-04-02T11:50:57;99882.16;;;17.24;53.67
73063;BME280;61230;46.328;19.972;2023-04-02T11:53:42;99879.37;;;17.87;50.39
73063;BME280;61230;46.328;19.972;2023-04-02T11:56:31;99866.69;;;17.41;51.48
73063;BME280;61230;46.328;19.972;2023-04-02T11:59:29;99867.69;;;17.81;52.06
73063;BME280;61230;46.328;19.972;2023-04-02T12:02:28;99867.34;;;18.17;51.24
73063;BME280;61230;46.328;19.972;2023-04-02T12:05:35;99860.53;;;17.95;49.46
73063;BME280;61230;46.328;19.972;2023-04-02T12:11:29;99864.16;;;17.67;48.74
73063;BME280;61230;46.328;19.972;2023-04-02T12:14:42;99866.88;;;16.99;56.49
73063;BME280;61230;46.328;19.972;2023-04-02T12:17:40;99883.78;;;15.79;62.37
73063;BME280;61230;46.328;19.972;2023-04-02T12:20:28;99874.16;;;14.98;69.79
73063;BME280;61230;46.328;19.972;2023-04-02T12:23:18;99828.88;;;14.41;72.87
73063;BME280;61230;46.328;19.972;2023-04-02T12:26:24;99874.59;;;14.72;74.31
73063;BME280;61230;46.328;19.972;2023-04-02T12:29:23;99864.59;;;14.60;75.46
73063;BME280;61230;46.328;19.972;2023-04-02T12:32:36;99882.50;;;14.58;72.91
73063;BME280;61230;46.328;19.972;2023-04-02T12:35:34;99863.50;;;14.54;73.49
73063;BME280;61230;46.328;19.972;2023-04-02T12:38:32;99868.16;;;14.29;75.83
73063;BME280;61230;46.328;19.972;2023-04-02T12:41:31;99870.75;;;14.37;77.30
73063;BME280;61230;46.328;19.972;2023-04-02T12:44:19;99866.69;;;14.27;74.35
73063;BME280;61230;46.328;19.972;2023-04-02T12:47:10;99852.00;;;14.62;63.50
73063;BME280;61230;46.328;19.972;2023-04-02T12:49:58;99859.34;;;15.47;59.82
73063;BME280;61230;46.328;19.972;2023-04-02T12:52:46;99852.97;;;16.20;62.18
73063;BME280;61230;46.328;19.972;2023-04-02T12:55:33;99845.47;;;16.51;61.96
73063;BME280;61230;46.328;19.972;2023-04-02T12:58:32;99858.38;;;16.12;60.19
73063;BME280;61230;46.328;19.972;2023-04-02T13:01:20;99857.78;;;15.89;63.31
73063;BME280;61230;46.328;19.972;2023-04-02T13:04:09;99859.44;;;15.75;60.47
73063;BME280;61230;46.328;19.972;2023-04-02T13:06:58;99858.53;;;15.18;61.96
73063;BME280;61230;46.328;19.972;2023-04-02T13:09:46;99864.47;;;15.05;59.66
73063;BME280;61230;46.328;19.972;2023-04-02T13:15:21;99876.06;;;15.19;59.86
73063;BME280;61230;46.328;19.972;2023-04-02T13:18:17;99869.41;;;15.08;63.60
73063;BME280;61230;46.328;19.972;2023-04-02T13:23:58;99836.53;;;14.51;70.56
73063;BME280;61230;46.328;19.972;2023-04-02T13:26:43;99874.53;;;15.10;72.03
73063;BME280;61230;46.328;19.972;2023-04-02T13:29:30;99876.31;;;15.53;71.95
73063;BME280;61230;46.328;19.972;2023-04-02T13:32:16;99864.37;;;15.78;71.29
73063;BME280;61230;46.328;19.972;2023-04-02T13:35:01;99871.44;;;15.71;69.68
73063;BME280;61230;46.328;19.972;2023-04-02T13:37:47;99877.72;;;15.49;67.96
73063;BME280;61230;46.328;19.972;2023-04-02T13:40:34;99874.22;;;15.63;65.11
73063;BME280;61230;46.328;19.972;2023-04-02T13:43:20;99869.84;;;15.26;65.64
73063;BME280;61230;46.328;19.972;2023-04-02T13:46:05;99866.97;;;15.93;64.43
73063;BME280;61230;46.328;19.972;2023-04-02T13:48:53;99837.44;;;14.95;65.61
73063;BME280;61230;46.328;19.972;2023-04-02T13:51:42;99870.47;;;14.99;66.83
73063;BME280;61230;46.328;19.972;2023-04-02T13:54:38;99871.84;;;14.80;68.13
73063;BME280;61230;46.328;19.972;2023-04-02T13:57:24;99876.09;;;14.29;68.72
73063;BME280;61230;46.328;19.972;2023-04-02T14:00:10;99874.56;;;14.12;68.56
73063;BME280;61230;46.328;19.972;2023-04-02T14:03:04;99885.63;;;13.93;69.00
73063;BME280;61230;46.328;19.972;2023-04-02T14:06:12;99853.63;;;13.80;69.19
73063;BME280;61230;46.328;19.972;2023-04-02T14:15:34;99901.69;;;13.53;74.10
73063;BME280;61230;46.328;19.972;2023-04-02T14:21:26;99898.50;;;13.27;76.15
73063;BME280;61230;46.328;19.972;2023-04-02T14:24:18;99847.34;;;13.03;76.72
73063;BME280;61230;46.328;19.972;2023-04-02T14:40:04;99880.34;;;13.85;81.22
73063;BME280;61230;46.328;19.972;2023-04-02T14:43:00;99872.63;;;14.06;79.19
73063;BME280;61230;46.328;19.972;2023-04-02T14:45:59;99879.22;;;14.10;75.03
73063;BME280;61230;46.328;19.972;2023-04-02T14:51:44;99874.75;;;14.33;75.82
73063;BME280;61230;46.328;19.972;2023-04-02T14:57:38;99882.09;;;14.23;75.00
73063;BME280;61230;46.328;19.972;2023-04-02T15:00:42;99871.50;;;14.23;76.15
73063;BME280;61230;46.328;19.972;2023-04-02T15:03:34;99886.50;;;14.31;74.27
73063;BME280;61230;46.328;19.972;2023-04-02T15:06:25;99890.66;;;14.25;73.96
73063;BME280;61230;46.328;19.972;2023-04-02T15:09:19;99890.66;;;14.25;75.61
73063;BME280;61230;46.328;19.972;2023-04-02T15:12:10;99889.25;;;14.15;77.46
73063;BME280;61230;46.328;19.972;2023-04-02T15:15:04;99899.16;;;14.21;78.10
73063;BME280;61230;46.328;19.972;2023-04-02T15:17:52;99894.03;;;14.42;77.75
73063;BME280;61230;46.328;19.972;2023-04-02T15:20:53;99895.84;;;14.79;76.88
73063;BME280;61230;46.328;19.972;2023-04-02T15:24:08;99889.13;;;14.91;75.66
73063;BME280;61230;46.328;19.972;2023-04-02T15:30:12;99905.12;;;14.98;74.29
73063;BME280;61230;46.328;19.972;2023-04-02T15:39:50;99911.22;;;14.46;75.62
73063;BME280;61230;46.328;19.972;2023-04-02T15:42:38;99871.50;;;14.23;76.70
73063;BME280;61230;46.328;19.972;2023-04-02T16:04:16;99937.41;;;14.64;76.56
73063;BME280;61230;46.328;19.972;2023-04-02T16:07:47;99934.34;;;14.52;78.90
73063;BME280;61230;46.328;19.972;2023-04-02T16:10:40;99934.31;;;14.29;79.57
73063;BME280;61230;46.328;19.972;2023-04-02T16:13:36;99945.47;;;14.17;79.72
73063;BME280;61230;46.328;19.972;2023-04-02T16:16:33;99936.12;;;14.06;81.30
73063;BME280;61230;46.328;19.972;2023-04-02T16:19:37;99946.91;;;13.97;81.99
73063;BME280;61230;46.328;19.972;2023-04-02T16:22:27;99954.59;;;13.83;82.85
73063;BME280;61230;46.328;19.972;2023-04-02T16:25:15;99941.66;;;13.58;83.21
73063;BME280;61230;46.328;19.972;2023-04-02T16:28:16;99930.16;;;13.35;84.84
73063;BME280;61230;46.328;19.972;2023-04-02T16:31:06;99961.34;;;13.47;85.10
73063;BME280;61230;46.328;19.972;2023-04-02T16:34:35;99965.50;;;13.42;87.31
73063;BME280;61230;46.328;19.972;2023-04-02T16:40:27;99975.78;;;13.20;86.69
73063;BME280;61230;46.328;19.972;2023-04-02T16:43:26;99939.84;;;12.87;86.76
73063;BME280;61230;46.328;19.972;2023-04-02T16:46:25;99992.66;;;12.79;90.06
73063;BME280;61230;46.328;19.972;2023-04-02T17:01:14;99995.25;;;12.39;82.21
73063;BME280;61230;46.328;19.972;2023-04-02T17:07:26;99949.34;;;12.07;81.20
73063;BME280;61230;46.328;19.972;2023-04-02T17:13:26;100001.66;;;12.20;83.78
73063;BME280;61230;46.328;19.972;2023-04-02T17:16:17;100020.56;;;12.07;85.17
73063;BME280;61230;46.328;19.972;2023-04-02T17:19:08;100049.81;;;11.88;87.04
73063;BME280;61230;46.328;19.972;2023-04-02T17:21:58;100057.97;;;11.69;89.10
73063;BME280;61230;46.328;19.972;2023-04-02T17:24:49;100055.97;;;11.20;97.58
73063;BME280;61230;46.328;19.972;2023-04-02T17:27:38;100078.25;;;10.90;100.00
73063;BME280;61230;46.328;19.972;2023-04-02T17:30:40;100082.59;;;10.46;100.00
73063;BME280;61230;46.328;19.972;2023-04-02T17:33:29;100075.78;;;10.26;100.00
73063;BME280;61230;46.328;19.972;2023-04-02T17:36:24;100063.44;;;9.99;100.00
73063;BME280;61230;46.328;19.972;2023-04-02T17:39:22;100081.84;;;9.99;100.00
73063;BME280;61230;46.328;19.972;2023-04-02T17:42:13;100080.78;;;9.92;100.00
73063;BME280;61230;46.328;19.972;2023-04-02T17:45:22;100097.94;;;9.87;100.00
73063;BME280;61230;46.328;19.972;2023-04-02T17:51:33;100090.78;;;9.79;100.00
73063;BME280;61230;46.328;19.972;2023-04-02T18:10:11;100114.44;;;9.79;100.00
73063;BME280;61230;46.328;19.972;2023-04-02T18:13:35;100118.87;;;9.78;100.00
73063;BME280;61230;46.328;19.972;2023-04-02T18:19:39;100132.97;;;9.68;100.00
73063;BME280;61230;46.328;19.972;2023-04-02T18:22:44;100136.72;;;9.75;100.00
73063;BME280;61230;46.328;19.972;2023-04-02T18:25:54;100131.06;;;9.70;100.00
73063;BME280;61230;46.328;19.972;2023-04-02T18:35:23;100160.50;;;9.64;100.00
73063;BME280;61230;46.328;19.972;2023-04-02T18:41:29;100145.75;;;9.53;100.00
73063;BME280;61230;46.328;19.972;2023-04-02T18:50:54;100168.12;;;9.57;100.00
73063;BME280;61230;46.328;19.972;2023-04-02T18:53:40;100169.66;;;9.50;100.00